createdAt,value
2018-09-30T00:01:05.467Z,6.13
2018-09-30T00:03:34.484Z,13.07
2018-09-30T00:06:03.501Z,11.87
2018-09-30T00:08:31.741Z,16.53
2018-09-30T00:10:59.874Z,7.37
2018-09-30T00:13:27.964Z,4.83
2018-09-30T00:15:56.211Z,14.73
2018-09-30T00:18:25.545Z,7.43
2018-09-30T00:20:53.936Z,6.00
2018-09-30T00:23:22.324Z,5.03
2018-09-30T00:25:55.728Z,11.00
2018-09-30T00:28:24.020Z,12.07
2018-09-30T00:30:52.678Z,8.70
2018-09-30T00:33:21.005Z,4.93
2018-09-30T00:35:49.863Z,4.60
2018-09-30T00:38:18.109Z,3.97
2018-09-30T00:40:46.203Z,3.80
2018-09-30T00:43:14.402Z,6.17
2018-09-30T00:45:43.582Z,7.57
2018-09-30T00:48:11.593Z,8.67
2018-09-30T00:50:39.500Z,7.07
2018-09-30T00:53:07.503Z,8.70
2018-09-30T00:55:35.985Z,8.13
2018-09-30T00:58:04.061Z,7.07
2018-09-30T01:00:32.154Z,7.47
2018-09-30T01:03:00.359Z,6.73
2018-09-30T01:05:28.689Z,16.00
2018-09-30T01:07:56.799Z,13.70
2018-09-30T01:10:25.055Z,5.80
2018-09-30T01:12:53.202Z,3.30
2018-09-30T01:15:21.641Z,6.63
2018-09-30T01:17:51.807Z,15.03
2018-09-30T01:20:20.284Z,3.10
2018-09-30T01:22:48.635Z,7.70
2018-09-30T01:25:16.764Z,4.70
2018-09-30T01:27:44.858Z,7.87
2018-09-30T01:30:13.304Z,8.00
2018-09-30T01:32:41.521Z,7.10
2018-09-30T01:35:11.546Z,9.20
2018-09-30T01:37:39.577Z,10.50
2018-09-30T01:40:07.637Z,4.00
2018-09-30T01:42:35.600Z,5.83
2018-09-30T01:45:03.563Z,11.23
2018-09-30T01:47:31.672Z,8.23
2018-09-30T01:50:00.372Z,13.27
2018-09-30T01:52:34.651Z,15.40
2018-09-30T01:55:02.730Z,5.83
2018-09-30T01:57:30.769Z,5.80
2018-09-30T01:59:59.070Z,8.53
2018-09-30T02:02:27.426Z,3.30
2018-09-30T02:04:55.545Z,12.63
2018-09-30T02:07:23.568Z,12.63
2018-09-30T02:09:51.816Z,3.53
2018-09-30T02:12:20.669Z,7.70
2018-09-30T02:14:49.134Z,9.60
2018-09-30T02:17:17.678Z,5.57
2018-09-30T02:19:46.497Z,10.40
2018-09-30T02:22:14.756Z,7.77
2018-09-30T02:24:49.719Z,11.07
2018-09-30T02:27:17.985Z,5.10
2018-09-30T02:29:46.308Z,6.03
2018-09-30T02:32:14.408Z,21.40
2018-09-30T02:34:42.964Z,5.47
2018-09-30T02:37:10.948Z,7.47
2018-09-30T02:39:38.905Z,7.27
2018-09-30T02:42:06.962Z,12.40
2018-09-30T02:44:35.014Z,4.00
2018-09-30T02:47:02.974Z,7.93
2018-09-30T02:49:31.000Z,8.50
2018-09-30T02:52:00.127Z,6.10
2018-09-30T02:54:28.301Z,12.07
2018-09-30T02:56:56.605Z,9.30
2018-09-30T02:59:25.107Z,7.00
2018-09-30T03:01:54.087Z,12.10
2018-09-30T03:04:22.512Z,4.70
2018-09-30T03:06:56.138Z,7.40
2018-09-30T03:09:24.372Z,7.67
2018-09-30T03:11:52.777Z,11.90
2018-09-30T03:14:21.738Z,11.57
2018-09-30T03:16:50.746Z,5.13
2018-09-30T03:19:19.021Z,11.97
2018-09-30T03:21:47.196Z,8.83
2018-09-30T03:24:15.533Z,7.33
2018-09-30T03:26:44.033Z,6.70
2018-09-30T03:29:12.534Z,9.03
2018-09-30T03:31:40.553Z,10.50
2018-09-30T03:34:08.639Z,6.10
2018-09-30T03:36:36.591Z,6.63
2018-09-30T03:39:05.219Z,8.07
2018-09-30T03:41:33.184Z,11.57
2018-09-30T03:44:01.217Z,4.37
2018-09-30T03:46:29.320Z,9.37
2018-09-30T03:48:57.521Z,3.03
2018-09-30T03:51:25.549Z,5.20
2018-09-30T03:53:53.696Z,8.70
2018-09-30T03:56:21.874Z,5.40
2018-09-30T03:58:50.545Z,6.93
2018-09-30T04:01:18.930Z,6.23
2018-09-30T04:03:47.070Z,5.33
2018-09-30T04:06:15.191Z,7.33
2018-09-30T04:08:43.150Z,14.40
2018-09-30T04:11:11.284Z,5.03
2018-09-30T04:13:39.227Z,6.67
2018-09-30T04:16:07.235Z,5.53
2018-09-30T04:18:35.169Z,9.40
2018-09-30T04:21:03.120Z,10.00
2018-09-30T04:23:31.155Z,9.00
2018-09-30T04:25:59.336Z,4.53
2018-09-30T04:28:27.568Z,7.17
2018-09-30T04:30:55.680Z,11.37
2018-09-30T04:33:24.000Z,3.50
2018-09-30T04:35:52.435Z,6.13
2018-09-30T04:38:22.316Z,8.70
2018-09-30T04:40:51.205Z,7.63
2018-09-30T04:43:19.545Z,4.40
2018-09-30T04:45:47.637Z,6.60
2018-09-30T04:48:15.969Z,6.90
2018-09-30T04:50:44.052Z,9.50
2018-09-30T04:55:57.652Z,16.57
2018-09-30T04:58:25.985Z,4.97
2018-09-30T05:00:54.106Z,7.20
2018-09-30T05:03:22.467Z,10.10
2018-09-30T05:05:50.910Z,5.53
2018-09-30T05:08:18.947Z,18.53
2018-09-30T05:10:47.357Z,10.30
2018-09-30T05:13:15.565Z,9.47
2018-09-30T05:15:43.701Z,7.83
2018-09-30T05:18:11.768Z,4.50
2018-09-30T05:20:39.723Z,13.70
2018-09-30T05:23:07.765Z,16.37
2018-09-30T05:25:36.668Z,7.83
2018-09-30T05:28:04.754Z,8.63
2018-09-30T05:30:32.704Z,5.57
2018-09-30T05:33:00.679Z,9.63
2018-09-30T05:35:28.811Z,11.90
2018-09-30T05:37:56.936Z,7.50
2018-09-30T05:40:25.240Z,6.90
2018-09-30T05:42:53.438Z,16.80
2018-09-30T05:45:22.126Z,7.60
2018-09-30T05:47:50.269Z,8.87
2018-09-30T05:50:18.556Z,11.40
2018-09-30T05:52:46.657Z,11.63
2018-09-30T05:55:14.991Z,8.90
2018-09-30T05:57:44.365Z,12.03
2018-09-30T06:00:12.370Z,6.53
2018-09-30T06:02:40.361Z,10.17
2018-09-30T06:05:08.327Z,10.33
2018-09-30T06:07:36.361Z,15.83
2018-09-30T06:10:04.462Z,8.73
2018-09-30T06:12:32.409Z,12.23
2018-09-30T06:15:00.525Z,9.20
2018-09-30T06:17:28.657Z,12.87
2018-09-30T06:19:56.731Z,11.57
2018-09-30T06:22:24.780Z,9.90
2018-09-30T06:24:52.983Z,16.53
2018-09-30T06:27:21.748Z,15.13
2018-09-30T06:29:50.284Z,6.80
2018-09-30T06:32:18.632Z,13.17
2018-09-30T06:34:46.733Z,8.07
2018-09-30T06:37:16.794Z,9.50
2018-09-30T06:39:45.104Z,20.13
2018-09-30T06:42:13.249Z,11.00
2018-09-30T06:44:41.175Z,10.37
2018-09-30T06:47:09.254Z,10.73
2018-09-30T06:49:37.193Z,16.23
2018-09-30T06:52:05.435Z,11.87
2018-09-30T06:54:33.475Z,11.17
2018-09-30T06:57:01.519Z,15.97
2018-09-30T06:59:29.653Z,10.43
2018-09-30T07:01:57.977Z,10.50
2018-09-30T07:04:26.248Z,22.17
2018-09-30T07:06:54.653Z,8.10
2018-09-30T07:09:23.211Z,9.37
2018-09-30T07:11:51.824Z,17.97
2018-09-30T07:14:20.283Z,12.17
2018-09-30T07:16:48.664Z,11.37
2018-09-30T07:19:16.788Z,14.07
2018-09-30T07:21:45.928Z,7.03
2018-09-30T07:24:14.208Z,19.03
2018-09-30T07:26:42.213Z,14.77
2018-09-30T07:29:13.613Z,15.03
2018-09-30T07:31:48.407Z,10.47
2018-09-30T07:34:16.707Z,10.70
2018-09-30T07:36:45.136Z,12.67
2018-09-30T07:39:13.333Z,13.50
2018-09-30T07:41:41.517Z,18.57
2018-09-30T07:44:09.581Z,11.37
2018-09-30T07:46:37.575Z,25.47
2018-09-30T07:49:05.669Z,15.23
2018-09-30T07:51:33.747Z,13.60
2018-09-30T07:54:01.853Z,12.83
2018-09-30T07:56:30.299Z,14.00
2018-09-30T07:58:58.504Z,13.60
2018-09-30T08:01:27.265Z,25.70
2018-09-30T08:03:55.498Z,14.63
2018-09-30T08:06:25.047Z,21.10
2018-09-30T08:08:53.574Z,14.73
2018-09-30T08:11:23.599Z,17.83
2018-09-30T08:13:51.937Z,16.60
2018-09-30T08:16:21.555Z,17.27
2018-09-30T08:18:50.709Z,20.27
2018-09-30T08:21:19.109Z,19.83
2018-09-30T08:23:47.623Z,24.27
2018-09-30T08:26:15.654Z,30.60
2018-09-30T08:28:43.843Z,23.17
2018-09-30T08:31:11.869Z,30.03
2018-09-30T08:33:39.975Z,23.20
2018-09-30T08:36:09.101Z,24.33
2018-09-30T08:38:38.564Z,24.77
2018-09-30T08:41:08.151Z,24.67
2018-09-30T08:43:37.801Z,30.47
2018-09-30T08:46:05.996Z,27.90
2018-09-30T08:48:35.498Z,26.40
2018-09-30T08:51:03.730Z,30.30
2018-09-30T08:53:32.073Z,19.13
2018-09-30T08:56:00.283Z,32.30
2018-09-30T08:58:29.240Z,27.03
2018-09-30T09:00:57.637Z,38.13
2018-09-30T09:03:26.670Z,23.47
2018-09-30T09:05:54.917Z,33.60
2018-09-30T09:08:24.582Z,29.63
2018-09-30T09:10:53.205Z,23.63
2018-09-30T09:13:21.853Z,36.33
2018-09-30T09:15:51.917Z,27.90
2018-09-30T09:18:21.818Z,26.20
2018-09-30T09:20:51.345Z,43.53
2018-09-30T09:23:21.167Z,27.77
2018-09-30T09:25:50.296Z,32.13
2018-09-30T09:28:19.825Z,28.10
2018-09-30T09:30:48.498Z,29.20
2018-09-30T09:33:16.867Z,29.43
2018-09-30T09:35:45.216Z,28.53
2018-09-30T09:38:13.203Z,38.53
2018-09-30T09:40:41.395Z,37.70
2018-09-30T09:43:09.533Z,31.50
2018-09-30T09:45:38.337Z,28.47
2018-09-30T09:48:11.394Z,26.20
2018-09-30T09:50:39.474Z,28.53
2018-09-30T09:53:07.890Z,35.17
2018-09-30T09:55:36.544Z,37.70
2018-09-30T09:58:05.021Z,30.73
2018-09-30T10:00:38.431Z,31.10
2018-09-30T10:03:07.493Z,29.97
2018-09-30T10:05:35.626Z,36.67
2018-09-30T10:08:10.043Z,32.90
2018-09-30T10:10:38.796Z,33.57
2018-09-30T10:13:06.860Z,33.97
2018-09-30T10:15:35.059Z,29.30
2018-09-30T10:18:05.299Z,32.77
2018-09-30T10:20:34.604Z,28.90
2018-09-30T10:23:06.208Z,29.03
2018-09-30T10:25:43.256Z,35.93
2018-09-30T10:28:16.268Z,36.60
2018-09-30T10:30:46.175Z,29.13
2018-09-30T10:33:14.925Z,30.10
2018-09-30T10:35:45.721Z,29.33
2018-09-30T10:38:14.121Z,35.60
2018-09-30T10:40:42.318Z,30.77
2018-09-30T10:43:10.475Z,35.93
2018-09-30T10:45:38.429Z,35.23
2018-09-30T10:48:06.643Z,34.77
2018-09-30T10:50:34.917Z,33.63
2018-09-30T10:53:03.528Z,36.30
2018-09-30T10:55:31.722Z,34.90
2018-09-30T11:00:52.579Z,25.80
2018-09-30T11:03:21.820Z,25.20
2018-09-30T11:05:52.324Z,31.80
2018-09-30T11:08:21.583Z,34.43
2018-09-30T11:10:50.373Z,29.70
2018-09-30T11:13:19.022Z,27.57
2018-09-30T11:15:47.281Z,29.03
2018-09-30T11:18:16.030Z,30.87
2018-09-30T11:26:17.683Z,24.63
2018-09-30T11:28:46.130Z,31.63
2018-09-30T11:31:14.802Z,28.47
2018-09-30T11:33:42.957Z,28.83
2018-09-30T11:36:12.601Z,26.70
2018-09-30T11:38:40.892Z,35.03
2018-09-30T11:43:47.034Z,28.60
2018-09-30T11:46:17.918Z,23.33
2018-09-30T11:48:46.337Z,28.27
2018-09-30T11:51:14.575Z,23.43
2018-09-30T11:53:42.676Z,28.77
2018-09-30T11:56:10.798Z,27.00
2018-09-30T11:58:38.790Z,29.73
2018-09-30T12:01:06.974Z,26.70
2018-09-30T12:03:35.104Z,23.97
2018-09-30T12:06:03.169Z,33.30
2018-09-30T12:08:32.271Z,25.17
2018-09-30T12:11:02.374Z,24.17
2018-09-30T12:13:30.878Z,22.20
2018-09-30T12:15:59.034Z,25.93
2018-09-30T12:18:27.352Z,19.30
2018-09-30T12:20:55.949Z,25.83
2018-09-30T12:23:24.104Z,26.73
2018-09-30T12:25:52.381Z,24.27
2018-09-30T12:28:20.629Z,24.00
2018-09-30T12:30:49.052Z,27.23
2018-09-30T12:33:17.204Z,31.43
2018-09-30T12:35:46.289Z,26.30
2018-09-30T12:38:14.289Z,20.53
2018-09-30T12:40:42.433Z,22.93
2018-09-30T12:43:10.373Z,26.00
2018-09-30T12:45:38.441Z,23.23
2018-09-30T12:48:06.539Z,23.50
2018-09-30T12:50:34.620Z,19.27
2018-09-30T12:53:02.655Z,24.23
2018-09-30T12:55:30.722Z,24.90
2018-09-30T12:57:58.861Z,24.17
2018-09-30T13:00:26.933Z,26.33
2018-09-30T13:02:55.132Z,24.47
2018-09-30T13:05:23.285Z,23.00
2018-09-30T13:07:51.584Z,20.53
2018-09-30T13:10:20.009Z,20.10
2018-09-30T13:12:48.368Z,24.07
2018-09-30T13:15:16.708Z,25.37
2018-09-30T13:17:46.100Z,22.67
2018-09-30T13:20:14.273Z,26.37
2018-09-30T13:22:42.539Z,22.13
2018-09-30T13:25:10.769Z,29.50
2018-09-30T13:27:38.874Z,18.03
2018-09-30T13:30:07.289Z,26.47
2018-09-30T13:32:35.458Z,22.37
2018-09-30T13:35:04.702Z,21.50
2018-09-30T13:37:32.897Z,18.60
2018-09-30T13:40:01.214Z,19.00
2018-09-30T13:42:29.453Z,27.57
2018-09-30T13:44:57.723Z,21.50
2018-09-30T13:47:26.178Z,25.83
2018-09-30T13:49:55.312Z,19.47
2018-09-30T13:52:24.616Z,18.40
2018-09-30T13:54:53.346Z,23.53
2018-09-30T13:57:22.215Z,25.27
2018-09-30T13:59:52.877Z,24.97
2018-09-30T14:02:26.538Z,24.67
2018-09-30T14:04:56.392Z,21.77
2018-09-30T14:07:24.838Z,19.20
2018-09-30T14:09:53.500Z,22.03
2018-09-30T14:12:21.968Z,19.10
2018-09-30T14:14:54.462Z,17.17
2018-09-30T14:17:23.124Z,25.13
2018-09-30T14:19:52.106Z,22.70
2018-09-30T14:22:20.852Z,22.43
2018-09-30T14:24:50.067Z,18.67
2018-09-30T14:27:18.216Z,29.53
2018-09-30T14:29:47.231Z,24.77
2018-09-30T14:32:15.251Z,23.10
2018-09-30T14:34:43.352Z,19.90
2018-09-30T14:37:13.139Z,21.60
2018-09-30T14:39:42.218Z,20.00
2018-09-30T14:42:10.729Z,22.00
2018-09-30T14:44:38.936Z,24.07
2018-09-30T14:47:07.031Z,21.77
2018-09-30T14:49:35.143Z,24.70
2018-09-30T14:52:03.184Z,19.87
2018-09-30T14:54:31.943Z,21.20
2018-09-30T14:57:02.202Z,22.80
2018-09-30T14:59:31.362Z,20.57
2018-09-30T15:01:59.529Z,22.87
2018-09-30T15:04:27.969Z,23.87
2018-09-30T15:06:57.261Z,17.23
2018-09-30T15:09:25.735Z,31.30
2018-09-30T15:11:54.821Z,23.10
2018-09-30T15:14:23.584Z,22.00
2018-09-30T15:16:51.955Z,19.23
2018-09-30T15:19:26.338Z,16.50
2018-09-30T15:21:55.278Z,25.90
2018-09-30T15:24:23.633Z,22.03
2018-09-30T15:26:51.853Z,29.47
2018-09-30T15:29:20.105Z,25.73
2018-09-30T15:31:48.845Z,27.50
2018-09-30T15:34:17.238Z,17.90
2018-09-30T15:36:46.091Z,29.67
2018-09-30T15:39:14.341Z,24.50
2018-09-30T15:41:42.695Z,21.43
2018-09-30T15:44:11.477Z,21.87
2018-09-30T15:46:39.794Z,27.17
2018-09-30T15:49:08.362Z,19.73
2018-09-30T15:51:36.540Z,22.10
2018-09-30T15:54:04.507Z,19.40
2018-09-30T15:56:32.549Z,20.47
2018-09-30T15:59:00.596Z,25.63
2018-09-30T16:01:30.053Z,18.90
2018-09-30T16:03:59.114Z,19.77
2018-09-30T16:06:27.338Z,14.80
2018-09-30T16:08:55.670Z,16.10
2018-09-30T16:11:24.073Z,15.50
2018-09-30T16:13:52.579Z,16.57
2018-09-30T16:16:21.097Z,25.33
2018-09-30T16:18:49.650Z,19.27
2018-09-30T16:21:17.813Z,18.23
2018-09-30T16:23:46.299Z,16.37
2018-09-30T16:26:14.402Z,17.37
2018-09-30T16:28:42.889Z,21.13
2018-09-30T16:31:11.049Z,15.13
2018-09-30T16:33:39.218Z,20.37
2018-09-30T16:36:17.974Z,24.23
2018-09-30T16:38:47.049Z,23.20
2018-09-30T16:41:15.555Z,13.90
2018-09-30T16:43:43.741Z,25.90
2018-09-30T16:46:14.210Z,20.80
2018-09-30T16:51:17.057Z,37.00
2018-09-30T16:53:45.845Z,26.97
2018-09-30T16:56:13.925Z,30.57
2018-09-30T16:58:42.012Z,26.47
2018-09-30T17:01:10.625Z,34.67
2018-09-30T17:03:38.600Z,28.10
2018-09-30T17:06:06.743Z,25.70
2018-09-30T17:08:34.759Z,34.53
2018-09-30T17:11:03.125Z,29.27
2018-09-30T17:13:31.982Z,22.47
2018-09-30T17:16:00.172Z,36.80
2018-09-30T17:18:28.649Z,28.13
2018-09-30T17:20:57.398Z,32.10
2018-09-30T17:23:25.626Z,27.53
2018-09-30T17:25:53.897Z,32.13
2018-09-30T17:28:22.886Z,26.03
2018-09-30T17:33:33.724Z,25.77
2018-09-30T17:36:03.132Z,35.67
2018-09-30T17:41:16.969Z,20.20
2018-09-30T17:43:58.184Z,29.47
2018-09-30T17:46:27.455Z,26.77
2018-09-30T17:48:57.640Z,34.67
2018-09-30T17:51:26.005Z,26.90
2018-09-30T17:53:54.829Z,28.90
2018-09-30T17:56:23.352Z,30.53
2018-09-30T17:58:52.270Z,30.07
2018-09-30T18:01:25.274Z,25.23
2018-09-30T18:03:53.816Z,46.70
2018-09-30T18:06:23.644Z,33.90
2018-09-30T18:08:53.385Z,26.60
2018-09-30T18:11:27.542Z,42.70
2018-09-30T18:14:02.014Z,27.77
2018-09-30T18:16:36.442Z,32.40
2018-09-30T18:19:11.519Z,34.77
2018-09-30T18:21:45.677Z,33.63
2018-09-30T18:24:20.472Z,27.00
2018-09-30T18:26:57.006Z,28.67
2018-09-30T18:32:19.175Z,29.43
2018-09-30T18:34:47.557Z,39.50
2018-09-30T18:37:15.786Z,31.07
2018-09-30T18:39:43.988Z,33.00
2018-09-30T18:42:14.220Z,32.80
2018-09-30T18:44:42.525Z,41.47
2018-09-30T18:47:10.703Z,37.43
2018-09-30T18:49:39.278Z,40.80
2018-09-30T18:52:07.434Z,49.13
2018-09-30T18:54:36.293Z,56.53
2018-09-30T18:57:04.605Z,38.33
2018-09-30T18:59:32.589Z,33.20
2018-09-30T19:02:01.370Z,37.53
2018-09-30T19:04:29.525Z,42.23
2018-09-30T19:06:57.682Z,38.60
2018-09-30T19:09:26.592Z,45.33
2018-09-30T19:11:55.024Z,37.13
2018-09-30T19:14:23.540Z,37.83
2018-09-30T19:16:51.901Z,37.40
2018-09-30T19:19:20.276Z,45.30
2018-09-30T19:21:49.399Z,31.07
2018-09-30T19:24:17.485Z,43.57
2018-09-30T19:26:45.584Z,34.63
2018-09-30T19:29:13.890Z,38.43
2018-09-30T19:31:42.140Z,35.60
2018-09-30T19:34:10.283Z,38.07
2018-09-30T19:36:38.415Z,37.17
2018-09-30T19:39:07.730Z,35.43
2018-09-30T19:41:36.475Z,34.30
2018-09-30T19:44:05.190Z,33.80
2018-09-30T19:46:33.246Z,42.17
2018-09-30T19:49:01.456Z,38.20
2018-09-30T19:51:29.676Z,43.23
2018-09-30T19:53:57.899Z,39.57
2018-09-30T19:56:26.153Z,45.43
2018-09-30T19:58:55.036Z,36.87
2018-09-30T20:01:23.197Z,41.80
2018-09-30T20:03:53.063Z,39.87
2018-09-30T20:06:21.125Z,43.33
2018-09-30T20:08:49.885Z,39.77
2018-09-30T20:11:17.976Z,36.20
2018-09-30T20:13:46.369Z,42.93
2018-09-30T20:16:14.519Z,45.97
2018-09-30T20:18:42.479Z,42.50
2018-09-30T20:21:10.471Z,49.00
2018-09-30T20:23:39.648Z,38.37
2018-09-30T20:26:07.714Z,34.10
2018-09-30T20:28:36.033Z,42.10
2018-09-30T20:31:04.370Z,42.50
2018-09-30T20:33:32.390Z,42.53
2018-09-30T20:36:01.044Z,42.13
2018-09-30T20:38:29.099Z,43.73
2018-09-30T20:40:57.735Z,54.13
2018-09-30T20:43:25.923Z,37.60
2018-09-30T20:45:56.378Z,40.77
2018-09-30T20:48:24.725Z,48.90
2018-09-30T20:50:52.998Z,43.50
2018-09-30T20:53:21.479Z,56.03
2018-09-30T20:55:49.886Z,37.03
2018-09-30T20:58:18.330Z,36.37
2018-09-30T21:00:46.860Z,33.60
2018-09-30T21:03:15.553Z,33.83
2018-09-30T21:05:56.167Z,42.70
2018-09-30T21:08:24.671Z,36.60
2018-09-30T21:10:53.056Z,39.77
2018-09-30T21:13:21.586Z,37.13
2018-09-30T21:15:51.033Z,41.53
2018-09-30T21:18:21.708Z,39.47
2018-09-30T21:20:50.495Z,38.40
2018-09-30T21:23:19.211Z,42.87
2018-09-30T21:25:47.991Z,36.20
2018-09-30T21:28:16.366Z,34.47
2018-09-30T21:30:45.534Z,37.17
2018-09-30T21:33:13.623Z,43.00
2018-09-30T21:35:41.702Z,36.87
2018-09-30T21:38:09.935Z,37.60
2018-09-30T21:40:37.973Z,36.83
2018-09-30T21:43:06.190Z,43.70
2018-09-30T21:45:34.164Z,35.07
2018-09-30T21:48:02.317Z,31.77
2018-09-30T21:50:30.452Z,36.13
2018-09-30T21:52:58.859Z,34.07
2018-09-30T21:55:27.232Z,36.67
2018-09-30T21:57:55.885Z,41.63
2018-09-30T22:00:29.436Z,28.60
2018-09-30T22:02:58.045Z,37.87
2018-09-30T22:05:26.542Z,28.40
2018-09-30T22:07:54.682Z,34.17
2018-09-30T22:10:23.480Z,42.07
2018-09-30T22:12:51.868Z,31.23
2018-09-30T22:15:22.057Z,33.50
2018-09-30T22:17:50.685Z,33.83
2018-09-30T22:20:18.875Z,32.13
2018-09-30T22:22:47.157Z,38.73
2018-09-30T22:25:15.972Z,35.63
2018-09-30T22:27:45.748Z,34.67
2018-09-30T22:30:13.943Z,32.20
2018-09-30T22:32:42.019Z,49.53
2018-09-30T22:35:10.357Z,38.07
2018-09-30T22:37:38.381Z,30.50
2018-09-30T22:40:06.747Z,30.07
2018-09-30T22:42:34.840Z,31.03
2018-09-30T22:45:02.896Z,32.10
2018-09-30T22:47:30.934Z,31.03
2018-09-30T22:49:59.653Z,40.00
2018-09-30T22:52:27.809Z,35.63
2018-09-30T22:54:56.222Z,40.57
2018-09-30T22:57:24.965Z,36.83
2018-09-30T22:59:53.548Z,34.17
2018-09-30T23:02:22.410Z,31.90
2018-09-30T23:04:51.208Z,35.70
2018-09-30T23:07:19.901Z,34.60
2018-09-30T23:09:48.343Z,47.37
2018-09-30T23:12:16.582Z,51.17
2018-09-30T23:14:45.820Z,35.30
2018-09-30T23:17:14.004Z,43.03
2018-09-30T23:19:42.048Z,40.80
2018-09-30T23:22:10.054Z,41.33
2018-09-30T23:24:38.045Z,36.10
2018-09-30T23:27:06.176Z,37.70
2018-09-30T23:29:34.129Z,50.50
2018-09-30T23:32:02.338Z,44.13
2018-09-30T23:34:30.329Z,41.63
2018-09-30T23:36:58.525Z,39.97
2018-09-30T23:39:26.797Z,38.10
2018-09-30T23:41:54.890Z,48.03
2018-09-30T23:44:23.237Z,49.30
2018-09-30T23:46:51.385Z,39.20
2018-09-30T23:49:20.436Z,45.07
2018-09-30T23:51:49.123Z,38.90
2018-09-30T23:54:17.170Z,37.33
2018-09-30T23:56:45.268Z,39.03
2018-09-30T23:59:13.381Z,36.63
